Time;durP1;ratioP1;P1;durP2;ratioP2;P2;SDS_P1;SDS_P2;PMS_P1;PMS_P2;Temp;Humidity;BMP_temperature;BMP_pressure;BME280_temperature;BME280_humidity;BME280_pressure;Samples;Min_cycle;Max_cycle;Signal;HPM_P1;HPM_P2
2022/03/13 00:00:54;;;;;;;4.05;2.90;;;19.90;90.40;;;;;;4230177;28;20213;-71
2022/03/13 00:03:01;;;;;;;3.05;2.60;;;19.90;90.30;;;;;;4145219;28;20301;-71
2022/03/13 00:05:06;;;;;;;3.10;2.80;;;19.90;90.50;;;;;;4194308;28;20236;-71
2022/03/13 00:07:14;;;;;;;3.72;2.92;;;19.90;90.50;;;;;;4229736;28;20209;-71
2022/03/13 00:09:16;;;;;;;3.05;2.60;;;19.90;90.50;;;;;;4229623;28;20291;-71
2022/03/13 00:11:18;;;;;;;5.38;2.92;;;19.90;90.60;;;;;;4229849;28;20225;-71
2022/03/13 00:13:21;;;;;;;3.42;2.88;;;19.90;90.60;;;;;;4220690;28;20610;-71
2022/03/13 00:15:28;;;;;;;3.55;2.80;;;19.90;90.50;;;;;;4229408;28;20222;-71
2022/03/13 00:17:31;;;;;;;3.63;2.90;;;19.90;90.60;;;;;;4229852;28;21146;-71
2022/03/13 00:19:34;;;;;;;3.90;2.95;;;19.90;90.40;;;;;;4226429;28;20608;-71
2022/03/13 00:21:38;;;;;;;3.13;2.67;;;19.80;90.50;;;;;;4215943;28;20268;-71
2022/03/13 00:23:40;;;;;;;4.28;3.47;;;19.90;90.70;;;;;;4223931;28;20290;-71
2022/03/13 00:25:43;;;;;;;3.30;2.97;;;19.80;90.50;;;;;;4229186;28;20214;-71
2022/03/13 00:27:45;;;;;;;4.00;3.20;;;19.90;90.80;;;;;;4229852;28;20218;-71
2022/03/13 00:29:48;;;;;;;4.10;2.83;;;19.90;90.60;;;;;;4229299;28;20621;-71
2022/03/13 00:31:51;;;;;;;3.45;2.60;;;19.80;90.40;;;;;;4229805;28;20217;-70
2022/03/13 00:33:53;;;;;;;3.60;2.80;;;19.90;90.80;;;;;;4229619;28;20248;-71
2022/03/13 00:35:57;;;;;;;4.32;3.08;;;19.80;90.50;;;;;;4229208;28;20613;-71
2022/03/13 00:37:59;;;;;;;4.00;3.30;;;19.80;90.60;;;;;;4229293;28;20646;-71
2022/03/13 00:40:01;;;;;;;3.65;2.72;;;19.80;90.90;;;;;;4229526;28;20221;-72
2022/03/13 00:42:04;;;;;;;3.85;2.95;;;19.80;90.50;;;;;;4228881;28;20217;-71
2022/03/13 00:44:07;;;;;;;3.53;2.53;;;19.80;90.20;;;;;;4229233;28;20991;-71
2022/03/13 00:46:09;;;;;;;3.15;2.70;;;19.80;90.40;;;;;;4229591;28;20718;-71
2022/03/13 00:48:12;;;;;;;4.40;3.05;;;19.80;90.60;;;;;;4227801;28;20338;-71
2022/03/13 00:50:14;;;;;;;3.05;2.75;;;19.80;90.50;;;;;;4226428;28;20271;-71
2022/03/13 00:52:18;;;;;;;3.22;2.90;;;19.80;90.40;;;;;;4229070;28;20650;-72
2022/03/13 00:54:20;;;;;;;4.70;3.15;;;19.80;90.60;;;;;;4229440;28;20731;-71
2022/03/13 00:56:23;;;;;;;3.17;2.80;;;19.80;90.60;;;;;;4229432;28;20241;-71
2022/03/13 00:58:25;;;;;;;2.97;2.65;;;19.80;90.60;;;;;;4228453;28;20263;-71
2022/03/13 01:00:28;;;;;;;3.00;2.65;;;19.80;90.50;;;;;;4229338;28;20221;-71
2022/03/13 01:02:30;;;;;;;4.45;2.92;;;19.80;90.60;;;;;;4229415;28;20271;-71
2022/03/13 01:04:33;;;;;;;3.13;2.83;;;19.80;90.70;;;;;;4229031;28;20209;-71
2022/03/13 01:06:35;;;;;;;3.35;2.97;;;19.70;90.40;;;;;;4228939;28;20255;-71
2022/03/13 01:08:39;;;;;;;4.32;3.08;;;19.80;90.50;;;;;;4229331;28;20236;-71
2022/03/13 01:10:42;;;;;;;4.22;3.03;;;19.70;90.60;;;;;;4229438;28;20707;-71
2022/03/13 01:12:45;;;;;;;3.28;2.60;;;19.80;91.10;;;;;;4221331;28;20214;-70
2022/03/13 01:14:47;;;;;;;3.20;2.88;;;19.70;90.70;;;;;;4229544;28;20225;-71
2022/03/13 01:16:59;;;;;;;3.83;2.78;;;19.70;90.60;;;;;;4229317;28;21032;-71
2022/03/13 01:19:02;;;;;;;3.80;2.90;;;19.70;90.50;;;;;;4228952;28;20218;-71
2022/03/13 01:21:04;;;;;;;2.70;2.33;;;19.70;90.60;;;;;;4215170;28;20210;-71
2022/03/13 01:23:11;;;;;;;3.85;2.83;;;19.70;90.90;;;;;;4229415;28;20720;-71
2022/03/13 01:25:16;;;;;;;3.63;2.70;;;19.70;90.60;;;;;;4227027;28;20217;-71
2022/03/13 01:27:19;;;;;;;3.13;2.78;;;19.70;90.50;;;;;;4231206;28;20263;-71
2022/03/13 01:29:21;;;;;;;3.17;2.55;;;19.70;90.70;;;;;;4219374;28;20612;-71
2022/03/13 01:31:26;;;;;;;3.33;2.70;;;19.70;90.70;;;;;;4232337;28;20222;-71
2022/03/13 01:33:28;;;;;;;3.85;3.13;;;19.70;90.60;;;;;;4232411;28;20283;-71
2022/03/13 01:35:30;;;;;;;3.67;2.60;;;19.70;90.60;;;;;;4232365;28;20271;-71
2022/03/13 01:37:35;;;;;;;3.30;2.78;;;19.70;90.60;;;;;;4227521;28;20307;-71
2022/03/13 01:39:37;;;;;;;2.90;2.60;;;19.70;90.60;;;;;;4215418;28;20614;-71
2022/03/13 01:41:41;;;;;;;4.07;3.05;;;19.70;91.00;;;;;;4202958;28;20224;-71
2022/03/13 01:43:44;;;;;;;3.00;2.67;;;19.70;90.70;;;;;;4213472;28;20557;-71
2022/03/13 01:45:46;;;;;;;3.30;2.70;;;19.70;90.70;;;;;;4215023;28;20280;-71
2022/03/13 01:47:49;;;;;;;3.13;2.83;;;19.70;90.60;;;;;;4211361;28;20211;-71
2022/03/13 01:49:51;;;;;;;4.00;2.85;;;19.70;90.70;;;;;;4210461;28;20623;-71
2022/03/13 01:51:54;;;;;;;3.17;2.50;;;19.60;90.70;;;;;;4214610;28;20593;-71
2022/03/13 01:53:59;;;;;;;3.08;2.83;;;19.60;90.70;;;;;;4214893;28;20265;-71
2022/03/13 01:56:01;;;;;;;3.42;2.95;;;19.70;90.70;;;;;;4215407;28;20252;-71
2022/03/13 01:58:04;;;;;;;5.07;2.88;;;19.70;90.70;;;;;;4215342;28;20278;-71
2022/03/13 02:00:10;;;;;;;4.20;2.80;;;19.70;90.70;;;;;;4214784;28;21152;-71
2022/03/13 02:02:13;;;;;;;3.95;2.92;;;19.60;90.70;;;;;;4215341;28;20202;-71
2022/03/13 02:04:23;;;;;;;3.08;2.78;;;19.70;90.70;;;;;;4215037;28;20990;-71
2022/03/13 02:06:26;;;;;;;3.75;2.70;;;19.60;90.70;;;;;;4231318;28;20270;-71
2022/03/13 02:08:28;;;;;;;4.20;2.80;;;19.70;90.70;;;;;;4231799;28;20243;-71
2022/03/13 02:10:31;;;;;;;3.83;2.70;;;19.60;90.60;;;;;;4231867;28;20218;-71
2022/03/13 02:12:34;;;;;;;3.25;2.80;;;19.70;90.80;;;;;;4228813;28;20222;-71
2022/03/13 02:14:38;;;;;;;3.65;2.65;;;19.70;90.80;;;;;;4231455;28;20240;-71
2022/03/13 02:16:40;;;;;;;3.25;2.55;;;19.60;90.70;;;;;;4231942;28;20693;-71
2022/03/13 02:18:47;;;;;;;3.50;2.80;;;19.70;90.70;;;;;;4231323;28;20278;-71
2022/03/13 02:20:49;;;;;;;3.58;2.80;;;19.60;90.80;;;;;;4217538;28;20563;-71
2022/03/13 02:22:53;;;;;;;3.22;2.92;;;19.60;90.80;;;;;;4231552;28;20217;-71
2022/03/13 02:24:56;;;;;;;2.75;2.53;;;19.60;90.70;;;;;;4231717;28;20278;-71
2022/03/13 02:27:01;;;;;;;5.07;2.85;;;19.60;90.80;;;;;;4231600;28;20225;-71
2022/03/13 02:29:04;;;;;;;3.40;2.90;;;19.60;90.70;;;;;;4231160;28;20275;-71
2022/03/13 02:31:17;;;;;;;2.92;2.63;;;19.60;90.70;;;;;;4231291;28;20267;-71
2022/03/13 02:33:21;;;;;;;3.80;3.10;;;19.60;90.80;;;;;;4231705;28;20276;-71
2022/03/13 02:35:24;;;;;;;3.67;2.80;;;19.60;90.70;;;;;;4222452;28;20657;-71
2022/03/13 02:37:37;;;;;;;3.67;2.72;;;19.60;90.80;;;;;;4230436;28;20233;-71
2022/03/13 02:39:41;;;;;;;3.00;2.60;;;19.60;90.80;;;;;;4223209;28;20218;-71
2022/03/13 02:41:44;;;;;;;4.05;2.72;;;19.60;90.80;;;;;;4226473;28;20266;-71
2022/03/13 02:43:46;;;;;;;3.30;2.80;;;19.60;90.80;;;;;;4230665;28;20217;-71
2022/03/13 02:45:52;;;;;;;3.00;2.50;;;19.60;90.70;;;;;;4231055;28;20217;-71
2022/03/13 02:47:54;;;;;;;3.10;2.80;;;19.50;90.90;;;;;;4231158;28;20250;-71
2022/03/13 02:49:56;;;;;;;3.75;3.30;;;19.60;90.80;;;;;;4230760;28;20218;-71
2022/03/13 02:52:02;;;;;;;4.13;2.80;;;19.50;90.80;;;;;;4230565;28;20218;-71
2022/03/13 02:54:04;;;;;;;3.13;2.63;;;19.60;90.80;;;;;;4230634;28;20217;-71
2022/03/13 02:56:08;;;;;;;3.97;3.20;;;19.50;90.80;;;;;;4230828;28;20226;-71
2022/03/13 02:58:11;;;;;;;3.20;2.90;;;19.50;90.80;;;;;;4231051;28;20291;-71
2022/03/13 03:00:15;;;;;;;3.25;2.70;;;19.50;90.90;;;;;;4231174;28;20218;-71
2022/03/13 03:02:19;;;;;;;3.55;2.92;;;19.50;90.80;;;;;;4231186;28;20271;-71
2022/03/13 03:04:25;;;;;;;4.22;3.05;;;19.50;90.80;;;;;;4230672;28;20218;-70
2022/03/13 03:06:30;;;;;;;2.80;2.53;;;19.50;90.70;;;;;;4230555;28;20221;-71
2022/03/13 03:08:33;;;;;;;3.22;2.63;;;19.50;90.70;;;;;;4230843;28;20259;-71
2022/03/13 03:10:36;;;;;;;3.47;2.92;;;19.50;90.80;;;;;;4228009;28;20258;-70
2022/03/13 03:12:39;;;;;;;3.22;2.50;;;19.50;90.80;;;;;;4230634;28;20215;-71
2022/03/13 03:14:42;;;;;;;3.17;2.72;;;19.50;91.20;;;;;;4217632;28;20210;-71
2022/03/13 03:16:45;;;;;;;3.30;3.00;;;19.50;90.80;;;;;;4230362;28;20217;-71
2022/03/13 03:18:47;;;;;;;2.70;2.40;;;19.50;90.80;;;;;;4230605;28;20620;-71
2022/03/13 03:20:50;;;;;;;3.72;2.47;;;19.50;90.90;;;;;;4216585;28;20222;-71
2022/03/13 03:22:53;;;;;;;3.13;2.70;;;19.50;90.90;;;;;;4229994;28;20267;-71
2022/03/13 03:24:55;;;;;;;3.97;3.10;;;19.50;90.90;;;;;;4230554;28;20263;-71
2022/03/13 03:26:58;;;;;;;3.67;2.90;;;19.50;90.90;;;;;;4222081;28;20678;-71
2022/03/13 03:29:04;;;;;;;3.05;2.55;;;19.50;91.00;;;;;;4229328;28;20263;-71
2022/03/13 03:31:06;;;;;;;3.75;2.60;;;19.50;91.00;;;;;;4218143;28;20241;-71
2022/03/13 03:33:08;;;;;;;2.92;2.33;;;19.50;91.10;;;;;;4229971;28;20731;-71
2022/03/13 03:35:11;;;;;;;3.10;2.55;;;19.50;91.10;;;;;;4230391;28;20222;-71
2022/03/13 03:37:14;;;;;;;2.92;2.50;;;19.50;90.90;;;;;;4229003;28;20279;-72
2022/03/13 03:39:18;;;;;;;2.90;2.60;;;19.40;90.80;;;;;;4230020;28;20283;-71
2022/03/13 03:41:20;;;;;;;2.40;2.20;;;19.50;91.00;;;;;;4222319;28;20275;-71
2022/03/13 03:43:22;;;;;;;3.20;2.90;;;19.40;90.90;;;;;;4230263;28;20221;-71
2022/03/13 03:45:26;;;;;;;3.58;3.13;;;19.40;91.10;;;;;;4230498;28;20222;-71
2022/03/13 03:47:28;;;;;;;3.08;2.40;;;19.40;91.00;;;;;;4228573;28;20274;-71
2022/03/13 03:49:33;;;;;;;2.92;2.42;;;19.50;91.00;;;;;;4221883;28;20723;-71
2022/03/13 03:51:36;;;;;;;3.95;3.05;;;19.50;90.90;;;;;;4230406;28;20641;-71
2022/03/13 03:53:38;;;;;;;3.28;2.60;;;19.40;91.00;;;;;;4216291;28;20259;-71
2022/03/13 03:55:40;;;;;;;3.03;2.72;;;19.40;90.90;;;;;;4230146;28;20270;-71
2022/03/13 03:57:44;;;;;;;3.20;2.63;;;19.40;91.00;;;;;;4229749;28;20229;-71
2022/03/13 03:59:47;;;;;;;2.85;2.53;;;19.40;91.10;;;;;;4229903;28;20306;-71
2022/03/13 04:01:50;;;;;;;4.20;2.90;;;19.50;91.10;;;;;;4230139;28;20274;-71
2022/03/13 04:03:53;;;;;;;3.50;2.60;;;19.40;91.10;;;;;;4229870;28;20275;-70
2022/03/13 04:05:55;;;;;;;2.75;2.50;;;19.50;91.00;;;;;;4229908;28;20222;-71
2022/03/13 04:07:58;;;;;;;4.07;2.75;;;19.40;91.10;;;;;;4229874;28;20214;-71
2022/03/13 04:10:01;;;;;;;3.10;2.55;;;19.40;91.00;;;;;;4221211;28;20226;-71
2022/03/13 04:12:07;;;;;;;4.72;2.90;;;19.40;91.00;;;;;;4229700;28;20267;-71
2022/03/13 04:14:10;;;;;;;3.50;3.03;;;19.40;91.10;;;;;;4218680;28;20631;-71
2022/03/13 04:16:12;;;;;;;3.00;2.70;;;19.40;91.10;;;;;;4228707;28;20262;-71
2022/03/13 04:18:16;;;;;;;3.58;2.90;;;19.40;91.00;;;;;;4229718;28;20241;-71
2022/03/13 04:20:18;;;;;;;4.93;2.67;;;19.40;91.10;;;;;;4220196;28;20308;-71
2022/03/13 04:22:20;;;;;;;3.17;2.75;;;19.40;91.00;;;;;;4220684;28;20732;-71
2022/03/13 04:24:23;;;;;;;3.38;2.78;;;19.40;91.10;;;;;;4227710;28;20283;-71
2022/03/13 04:26:25;;;;;;;3.15;2.72;;;19.40;91.20;;;;;;4229702;28;20222;-71
2022/03/13 04:28:28;;;;;;;2.90;2.45;;;19.30;91.00;;;;;;4229741;28;20214;-71
2022/03/13 04:30:31;;;;;;;3.25;2.55;;;19.40;91.10;;;;;;4229610;28;20290;-71
2022/03/13 04:32:33;;;;;;;2.75;2.50;;;19.40;91.20;;;;;;4222119;28;20270;-71
2022/03/13 04:34:37;;;;;;;2.90;2.35;;;19.30;91.10;;;;;;4229242;28;20719;-71
2022/03/13 04:36:39;;;;;;;3.03;2.72;;;19.30;91.10;;;;;;4227228;28;20243;-71
2022/03/13 04:38:42;;;;;;;3.15;2.75;;;19.40;91.10;;;;;;4226533;28;20242;-71
2022/03/13 04:40:44;;;;;;;3.05;2.75;;;19.30;91.10;;;;;;4229450;28;20222;-71
2022/03/13 04:42:46;;;;;;;2.90;2.58;;;19.30;91.10;;;;;;4229454;28;20222;-71
2022/03/13 04:44:49;;;;;;;3.40;2.42;;;19.30;91.10;;;;;;4229744;28;20222;-70
2022/03/13 04:46:51;;;;;;;3.33;2.58;;;19.40;91.10;;;;;;4229498;28;20274;-71
2022/03/13 04:48:54;;;;;;;3.33;2.70;;;19.30;91.10;;;;;;4216883;28;20213;-71
2022/03/13 04:50:57;;;;;;;2.97;2.50;;;19.30;91.00;;;;;;4229428;28;20263;-71
2022/03/13 04:53:00;;;;;;;3.40;3.00;;;19.30;91.10;;;;;;4228789;28;20221;-71
2022/03/13 04:55:02;;;;;;;4.38;2.63;;;19.30;91.10;;;;;;4229823;28;20225;-71
2022/03/13 04:57:05;;;;;;;3.25;2.70;;;19.30;91.10;;;;;;4229604;28;20222;-71
2022/03/13 04:59:07;;;;;;;3.30;2.88;;;19.30;91.10;;;;;;4229134;28;20282;-71
2022/03/13 05:01:10;;;;;;;2.83;2.40;;;19.30;91.00;;;;;;4231585;28;20213;-71
2022/03/13 05:03:12;;;;;;;4.32;2.67;;;19.30;91.40;;;;;;4232744;28;20225;-71
2022/03/13 05:05:15;;;;;;;3.53;2.65;;;19.30;91.10;;;;;;4232679;28;20278;-71
2022/03/13 05:07:21;;;;;;;3.00;2.60;;;19.30;91.10;;;;;;4232819;28;20623;-71
2022/03/13 05:09:23;;;;;;;3.00;2.70;;;19.30;91.20;;;;;;4232628;28;20222;-71
2022/03/13 05:11:25;;;;;;;3.60;2.85;;;19.30;91.50;;;;;;4232404;28;20225;-71
2022/03/13 05:13:28;;;;;;;3.00;2.65;;;19.30;91.10;;;;;;4227206;28;20260;-71
2022/03/13 05:15:30;;;;;;;3.30;2.90;;;19.30;91.10;;;;;;4225046;28;20622;-71
2022/03/13 05:17:32;;;;;;;2.95;2.60;;;19.30;91.10;;;;;;4232375;28;20270;-71
2022/03/13 05:19:35;;;;;;;4.55;3.30;;;19.30;91.20;;;;;;4230021;28;20221;-71
2022/03/13 05:21:37;;;;;;;3.38;2.50;;;19.30;91.10;;;;;;4222855;28;20217;-71
2022/03/13 05:23:41;;;;;;;3.10;2.70;;;19.30;91.10;;;;;;4232260;28;20266;-70
2022/03/13 05:25:43;;;;;;;3.22;2.70;;;19.30;91.20;;;;;;4224634;28;20218;-71
2022/03/13 05:27:46;;;;;;;3.60;2.78;;;19.30;91.20;;;;;;4232780;28;20218;-71
2022/03/13 05:29:48;;;;;;;3.30;2.85;;;19.30;91.10;;;;;;4232103;28;20629;-71
2022/03/13 05:31:50;;;;;;;3.10;2.70;;;19.30;91.10;;;;;;4232394;28;20217;-70
2022/03/13 05:33:52;;;;;;;3.67;2.60;;;19.30;91.10;;;;;;4232377;28;20226;-71
2022/03/13 05:35:55;;;;;;;3.28;2.30;;;19.20;91.00;;;;;;4232208;28;20221;-71
2022/03/13 05:37:57;;;;;;;2.97;2.63;;;19.20;91.10;;;;;;4231691;28;20237;-70
2022/03/13 05:40:01;;;;;;;3.15;2.80;;;19.20;91.20;;;;;;4211944;28;20272;-71
2022/03/13 05:42:05;;;;;;;3.05;2.63;;;19.20;91.10;;;;;;4230962;28;20222;-71
2022/03/13 05:44:09;;;;;;;3.30;2.50;;;19.20;91.10;;;;;;4232086;28;20275;-71
2022/03/13 05:46:11;;;;;;;2.75;2.47;;;19.20;91.20;;;;;;4232273;28;20222;-70
2022/03/13 05:48:17;;;;;;;3.85;2.40;;;19.20;91.10;;;;;;4232642;28;20597;-71
2022/03/13 05:50:21;;;;;;;3.55;3.03;;;19.20;91.10;;;;;;4223573;28;20256;-71
2022/03/13 05:52:23;;;;;;;3.25;2.95;;;19.20;91.10;;;;;;4224511;28;20278;-71
2022/03/13 05:54:26;;;;;;;3.72;2.67;;;19.20;91.10;;;;;;4232077;28;20213;-71
2022/03/13 05:56:29;;;;;;;3.50;2.85;;;19.20;91.10;;;;;;4231840;28;20270;-71
2022/03/13 05:58:32;;;;;;;4.50;3.10;;;19.20;91.20;;;;;;4231827;28;20641;-71
2022/03/13 06:00:34;;;;;;;3.10;2.40;;;19.10;91.10;;;;;;4223820;28;20623;-71
2022/03/13 06:02:40;;;;;;;3.05;2.60;;;19.20;91.20;;;;;;4226283;28;20218;-71
2022/03/13 06:04:42;;;;;;;4.05;2.80;;;19.10;91.10;;;;;;4232106;28;20213;-72
2022/03/13 06:06:45;;;;;;;3.53;2.90;;;19.10;91.20;;;;;;4231935;28;20218;-71
2022/03/13 06:08:48;;;;;;;3.38;2.70;;;19.10;91.20;;;;;;4231745;28;20221;-71
2022/03/13 06:10:51;;;;;;;2.80;2.55;;;19.10;91.20;;;;;;4231911;28;20267;-71
2022/03/13 06:12:55;;;;;;;3.22;2.60;;;19.10;91.20;;;;;;4225184;28;20217;-71
2022/03/13 06:14:57;;;;;;;3.45;2.88;;;19.10;91.20;;;;;;4231529;28;20217;-71
2022/03/13 06:16:59;;;;;;;3.08;2.70;;;19.10;91.20;;;;;;4231847;28;20218;-71
2022/03/13 06:19:02;;;;;;;3.05;2.75;;;19.10;91.20;;;;;;4230142;28;20221;-71
2022/03/13 06:21:05;;;;;;;3.17;2.88;;;19.10;91.60;;;;;;4229647;28;20278;-71
2022/03/13 06:23:08;;;;;;;2.58;2.22;;;19.10;91.20;;;;;;4231585;28;20213;-71
2022/03/13 06:25:13;;;;;;;3.42;2.60;;;19.10;91.20;;;;;;4230930;28;20557;-71
2022/03/13 06:27:17;;;;;;;2.90;2.60;;;19.10;91.20;;;;;;4231520;28;20610;-71
2022/03/13 06:29:22;;;;;;;3.28;2.95;;;19.10;91.20;;;;;;4231132;28;20271;-71
2022/03/13 06:31:25;;;;;;;2.90;2.55;;;19.10;91.20;;;;;;4231255;28;20217;-71
2022/03/13 06:33:28;;;;;;;3.47;2.55;;;19.10;91.30;;;;;;4231186;28;20263;-71
2022/03/13 06:35:32;;;;;;;3.95;3.00;;;19.10;91.20;;;;;;4231227;28;20225;-71
2022/03/13 06:37:34;;;;;;;2.75;2.55;;;19.10;91.30;;;;;;4231608;28;20559;-71
2022/03/13 06:39:36;;;;;;;3.00;2.70;;;19.10;91.30;;;;;;4230988;28;20234;-71
2022/03/13 06:41:39;;;;;;;3.13;2.83;;;19.10;91.20;;;;;;4231036;28;20244;-71
2022/03/13 06:43:41;;;;;;;3.03;2.55;;;19.10;91.30;;;;;;4230777;28;20255;-71
2022/03/13 06:45:45;;;;;;;3.47;2.78;;;19.10;91.30;;;;;;4230818;28;20267;-70
2022/03/13 06:47:49;;;;;;;3.97;2.60;;;19.00;91.30;;;;;;4231105;28;20661;-71
2022/03/13 06:49:51;;;;;;;3.22;2.85;;;19.10;91.40;;;;;;4231082;28;20226;-71
2022/03/13 06:51:54;;;;;;;3.20;2.90;;;19.10;91.30;;;;;;4218731;28;20267;-70
2022/03/13 06:53:56;;;;;;;3.47;2.65;;;19.10;91.30;;;;;;4220936;28;20657;-70
2022/03/13 06:55:58;;;;;;;2.95;2.65;;;19.10;91.40;;;;;;4231555;28;20206;-70
2022/03/13 06:58:01;;;;;;;3.17;2.88;;;19.10;91.40;;;;;;4231067;28;20263;-70
2022/03/13 07:00:04;;;;;;;2.85;2.50;;;19.10;91.40;;;;;;4229493;28;20646;-70
2022/03/13 07:02:09;;;;;;;3.10;2.80;;;19.10;91.40;;;;;;4225902;28;20893;-70
2022/03/13 07:04:14;;;;;;;3.22;2.92;;;19.10;91.30;;;;;;4231824;28;20275;-70
2022/03/13 07:06:17;;;;;;;3.00;2.70;;;19.10;91.40;;;;;;4218038;28;20288;-70
2022/03/13 07:08:19;;;;;;;3.70;2.70;;;19.10;91.40;;;;;;4231424;28;20217;-70
2022/03/13 07:10:21;;;;;;;3.05;2.80;;;19.10;91.40;;;;;;4226072;28;20260;-70
2022/03/13 07:12:24;;;;;;;4.03;3.10;;;19.00;91.40;;;;;;4226724;28;20218;-70
2022/03/13 07:14:26;;;;;;;3.80;2.97;;;19.00;91.40;;;;;;4230251;28;20218;-70
2022/03/13 07:16:28;;;;;;;3.13;2.80;;;19.00;91.30;;;;;;4231240;28;20222;-70
2022/03/13 07:18:32;;;;;;;3.25;2.95;;;19.10;91.50;;;;;;4231703;28;20704;-70
2022/03/13 07:20:34;;;;;;;3.08;2.50;;;19.00;91.40;;;;;;4216950;28;20234;-70
2022/03/13 07:22:37;;;;;;;3.17;2.67;;;19.10;91.50;;;;;;4229533;28;20271;-70
2022/03/13 07:24:39;;;;;;;4.35;3.00;;;19.00;91.50;;;;;;4231280;28;20262;-70
2022/03/13 07:26:42;;;;;;;3.10;2.72;;;19.00;91.50;;;;;;4230849;28;20217;-70
2022/03/13 07:28:44;;;;;;;3.42;3.00;;;19.00;91.40;;;;;;4231222;28;20630;-70
2022/03/13 07:30:47;;;;;;;4.05;3.00;;;19.10;91.50;;;;;;4228186;28;20222;-70
2022/03/13 07:32:49;;;;;;;3.17;2.83;;;19.10;91.50;;;;;;4220559;28;20222;-70
2022/03/13 07:34:53;;;;;;;3.30;3.00;;;19.00;91.40;;;;;;4231074;28;20302;-70
2022/03/13 07:36:55;;;;;;;2.70;2.50;;;19.00;91.40;;;;;;4217239;28;20612;-70
2022/03/13 07:38:57;;;;;;;3.47;3.08;;;19.00;91.40;;;;;;4200169;28;20638;-70
2022/03/13 07:41:00;;;;;;;4.10;3.20;;;19.00;91.40;;;;;;4213509;28;20242;-70
2022/03/13 07:43:02;;;;;;;3.63;3.00;;;19.00;91.50;;;;;;4214056;28;20222;-70
2022/03/13 07:45:05;;;;;;;3.20;2.60;;;19.00;91.40;;;;;;4213699;28;20217;-70
2022/03/13 07:47:08;;;;;;;3.00;2.65;;;19.00;91.40;;;;;;4207751;28;20272;-70
2022/03/13 07:49:10;;;;;;;3.17;2.80;;;19.00;91.50;;;;;;4213995;28;20268;-70
2022/03/13 07:51:14;;;;;;;3.83;3.15;;;19.00;91.60;;;;;;4213366;28;20607;-70
2022/03/13 07:53:17;;;;;;;2.95;2.70;;;19.00;91.40;;;;;;4213510;28;20230;-70
2022/03/13 07:55:21;;;;;;;3.58;2.90;;;19.00;91.80;;;;;;4213880;28;20274;-69
2022/03/13 07:57:24;;;;;;;3.35;3.05;;;19.00;91.50;;;;;;4213740;28;20222;-69
2022/03/13 07:59:26;;;;;;;3.78;2.90;;;19.00;91.40;;;;;;4212065;28;20555;-69
2022/03/13 08:01:28;;;;;;;3.28;2.97;;;19.00;91.40;;;;;;4199004;28;20254;-69
2022/03/13 08:03:35;;;;;;;3.10;2.70;;;19.00;91.50;;;;;;4213298;28;20253;-69
2022/03/13 08:05:37;;;;;;;4.75;3.08;;;19.10;91.50;;;;;;4213334;28;20275;-69
2022/03/13 08:07:41;;;;;;;3.88;3.08;;;19.00;91.30;;;;;;4213392;28;20598;-69
2022/03/13 08:09:43;;;;;;;3.08;2.78;;;19.00;91.30;;;;;;4212931;28;20279;-69
2022/03/13 08:11:45;;;;;;;3.92;2.83;;;19.00;91.40;;;;;;4202523;28;20222;-69
2022/03/13 08:13:49;;;;;;;3.83;3.42;;;19.00;91.40;;;;;;4213517;28;20214;-69
2022/03/13 08:15:52;;;;;;;3.88;2.90;;;19.00;91.30;;;;;;4213431;28;20218;-69
2022/03/13 08:17:54;;;;;;;2.97;2.65;;;19.00;91.30;;;;;;4213162;28;20226;-70
2022/03/13 08:19:57;;;;;;;3.30;2.80;;;19.00;91.40;;;;;;4206973;28;20258;-70
2022/03/13 08:21:59;;;;;;;4.07;3.15;;;19.00;91.50;;;;;;4198481;28;20238;-70
2022/03/13 08:24:05;;;;;;;3.65;3.10;;;19.00;91.40;;;;;;4210112;28;20219;-70
2022/03/13 08:26:08;;;;;;;3.47;3.17;;;19.00;91.30;;;;;;4194231;28;20475;-70
2022/03/13 08:28:11;;;;;;;3.60;3.10;;;19.00;91.20;;;;;;4213707;28;20222;-71
2022/03/13 08:30:13;;;;;;;2.72;2.53;;;19.00;91.30;;;;;;4212391;28;20218;-70
2022/03/13 08:32:17;;;;;;;3.72;2.90;;;19.00;91.30;;;;;;4213152;28;20222;-70
2022/03/13 08:34:19;;;;;;;3.28;2.97;;;19.00;91.30;;;;;;4213096;28;20351;-69
2022/03/13 08:36:21;;;;;;;3.10;2.80;;;19.00;91.40;;;;;;4208328;28;20226;-69
2022/03/13 08:38:23;;;;;;;3.42;2.83;;;19.00;91.40;;;;;;4213068;28;20303;-69
2022/03/13 08:40:29;;;;;;;3.05;2.65;;;19.00;91.30;;;;;;4204873;28;20677;-69
2022/03/13 08:42:31;;;;;;;2.95;2.65;;;19.00;91.30;;;;;;4209637;28;20243;-69
2022/03/13 08:44:34;;;;;;;4.05;3.15;;;19.00;91.20;;;;;;4212686;28;20215;-69
2022/03/13 08:46:38;;;;;;;2.70;2.50;;;19.00;91.30;;;;;;4213160;28;20213;-69
2022/03/13 08:48:40;;;;;;;3.20;2.88;;;19.00;91.20;;;;;;4213237;28;20276;-69
2022/03/13 08:50:42;;;;;;;3.20;2.90;;;19.00;91.30;;;;;;4210494;28;20227;-69
2022/03/13 08:52:45;;;;;;;3.50;2.70;;;19.00;91.60;;;;;;4205609;28;20324;-69
2022/03/13 08:54:47;;;;;;;3.08;2.78;;;19.10;91.30;;;;;;4213024;28;20623;-69
2022/03/13 08:56:51;;;;;;;4.32;2.97;;;19.10;91.20;;;;;;4199476;28;20674;-69
2022/03/13 08:58:54;;;;;;;2.95;2.65;;;19.00;91.20;;;;;;4212428;28;20230;-70
2022/03/13 09:00:57;;;;;;;3.40;2.95;;;19.00;91.20;;;;;;4202193;28;20301;-70
2022/03/13 09:02:59;;;;;;;3.13;2.83;;;19.10;91.20;;;;;;4210018;28;20244;-69
2022/03/13 09:05:02;;;;;;;3.78;2.80;;;19.00;91.20;;;;;;4212715;28;20682;-70
2022/03/13 09:07:04;;;;;;;3.47;2.90;;;19.10;91.20;;;;;;4212616;28;20218;-70
2022/03/13 09:09:08;;;;;;;3.22;2.85;;;19.10;91.20;;;;;;4213208;28;20214;-70
2022/03/13 09:11:11;;;;;;;3.28;2.92;;;19.10;91.20;;;;;;4208726;28;20214;-70
2022/03/13 09:13:15;;;;;;;3.88;2.80;;;19.10;91.40;;;;;;4212866;28;20712;-70
2022/03/13 09:15:17;;;;;;;4.32;2.92;;;19.10;91.50;;;;;;4212876;28;20218;-70
2022/03/13 09:17:20;;;;;;;3.25;2.88;;;19.10;91.80;;;;;;4212475;28;20226;-69
2022/03/13 09:19:22;;;;;;;3.10;2.80;;;19.10;91.80;;;;;;4206972;28;20222;-69
2022/03/13 09:21:25;;;;;;;2.47;2.28;;;19.10;91.90;;;;;;4212562;28;20242;-70
2022/03/13 09:23:27;;;;;;;3.30;3.00;;;19.10;91.60;;;;;;4212673;28;20222;-69
2022/03/13 09:25:31;;;;;;;3.30;3.00;;;19.10;91.30;;;;;;4212832;28;20260;-70
2022/03/13 09:27:33;;;;;;;3.30;2.88;;;19.10;91.30;;;;;;4210097;28;20218;-70
2022/03/13 09:29:37;;;;;;;3.17;2.88;;;19.10;91.50;;;;;;4205823;28;20272;-69
2022/03/13 09:31:39;;;;;;;3.33;2.70;;;19.10;91.70;;;;;;4212296;28;20410;-69
2022/03/13 09:33:41;;;;;;;3.47;2.50;;;19.10;91.60;;;;;;4211560;28;20219;-69
2022/03/13 09:35:44;;;;;;;2.78;2.58;;;19.10;91.40;;;;;;4212350;28;20268;-71
2022/03/13 09:37:46;;;;;;;3.50;2.90;;;19.10;91.70;;;;;;4221995;28;20291;-70
2022/03/13 09:39:48;;;;;;;3.10;2.80;;;19.10;91.80;;;;;;4229326;28;20217;-70
2022/03/13 09:41:51;;;;;;;3.35;2.88;;;19.10;92.20;;;;;;4229573;28;20778;-69
2022/03/13 09:43:53;;;;;;;3.15;2.85;;;19.10;92.20;;;;;;4216213;28;20727;-69
2022/03/13 09:45:57;;;;;;;3.25;2.67;;;19.10;91.70;;;;;;4220070;28;20270;-69
2022/03/13 09:48:02;;;;;;;2.78;2.58;;;19.00;91.80;;;;;;4226494;28;20755;-69
2022/03/13 09:50:05;;;;;;;3.17;2.70;;;19.10;92.00;;;;;;4232316;28;20666;-70
2022/03/13 09:52:08;;;;;;;3.08;2.70;;;19.10;91.80;;;;;;4227801;28;20244;-69
2022/03/13 09:54:10;;;;;;;2.55;2.35;;;19.10;91.70;;;;;;4223440;28;20222;-69
2022/03/13 09:56:13;;;;;;;3.75;2.88;;;19.10;92.00;;;;;;4226984;28;20271;-69
2022/03/13 09:58:15;;;;;;;3.17;2.70;;;19.10;92.10;;;;;;4232091;28;20282;-69
2022/03/13 10:00:20;;;;;;;2.72;2.53;;;19.10;91.50;;;;;;4232329;28;20214;-69
2022/03/13 10:02:34;;;;;;;3.55;2.80;;;19.10;92.00;;;;;;4231924;28;20895;-70
2022/03/13 10:04:36;;;;;;;2.90;2.70;;;19.10;91.60;;;;;;4221685;28;20264;-69
2022/03/13 10:07:01;;;;;;;4.05;2.80;;;19.20;91.70;;;;;;4218577;28;20218;-69
2022/03/13 10:09:27;;;;;;;3.63;2.67;;;19.10;91.50;;;;;;4232059;28;20222;-69
2022/03/13 10:11:33;;;;;;;2.97;2.67;;;19.20;91.40;;;;;;4218005;28;20286;-70
2022/03/13 10:13:38;;;;;;;2.92;2.70;;;19.20;91.60;;;;;;4232096;28;20221;-70
2022/03/13 10:15:42;;;;;;;2.90;2.70;;;19.20;91.60;;;;;;4232280;28;20221;-70
2022/03/13 10:17:48;;;;;;;3.22;2.67;;;19.20;91.90;;;;;;4228204;28;20270;-69
2022/03/13 10:19:50;;;;;;;2.97;2.67;;;19.20;91.50;;;;;;4228270;28;20218;-69
2022/03/13 10:22:04;;;;;;;3.30;2.80;;;19.30;91.90;;;;;;4231469;28;20283;-69
2022/03/13 10:24:10;;;;;;;3.30;3.00;;;19.30;91.60;;;;;;4231772;28;20607;-70
2022/03/13 10:26:12;;;;;;;2.90;2.63;;;19.30;91.50;;;;;;4231952;28;20218;-70
2022/03/13 10:28:18;;;;;;;2.88;2.65;;;19.30;91.40;;;;;;4231867;28;20234;-70
2022/03/13 10:30:21;;;;;;;3.00;2.70;;;19.30;91.50;;;;;;4231942;28;20667;-70
2022/03/13 10:32:23;;;;;;;4.50;2.80;;;19.30;91.50;;;;;;4231558;28;20619;-70
2022/03/13 10:34:27;;;;;;;3.03;2.75;;;19.30;91.50;;;;;;4231382;28;20221;-69
2022/03/13 10:36:35;;;;;;;3.22;2.92;;;19.30;91.30;;;;;;4231364;28;20271;-69
2022/03/13 10:38:38;;;;;;;2.95;2.67;;;19.30;91.70;;;;;;4214724;28;20233;-69
2022/03/13 10:40:41;;;;;;;3.10;2.75;;;19.30;91.60;;;;;;4214544;28;20218;-70
2022/03/13 10:42:44;;;;;;;3.63;3.20;;;19.30;91.50;;;;;;4214728;28;20292;-70